Time;durP1;ratioP1;P1;durP2;ratioP2;P2;SDS_P1;SDS_P2;PMS_P1;PMS_P2;Temp;Humidity;BMP_temperature;BMP_pressure;BME280_temperature;BME280_humidity;BME280_pressure;Samples;Min_cycle;Max_cycle;Signal;HPM_P1;HPM_P2
2023/10/30 00:01:23;;;;;;;0.00;0.00;;;;;;;10.21;100.00;99598.28;5112652;28;20036;-39
2023/10/30 00:03:50;;;;;;;0.00;0.00;;;;;;;10.18;100.00;99598.72;5112674;28;20055;-40
2023/10/30 00:06:15;;;;;;;0.00;0.00;;;;;;;10.17;100.00;99602.44;5101228;28;20024;-39
2023/10/30 00:08:40;;;;;;;0.00;0.00;;;;;;;10.13;100.00;99600.38;5092472;28;20485;-41
2023/10/30 00:11:06;;;;;;;0.00;0.00;;;;;;;10.08;100.00;99598.31;5092127;28;20031;-40
2023/10/30 00:13:31;;;;;;;0.00;0.00;;;;;;;10.04;100.00;99603.28;5092704;28;20035;-39
2023/10/30 00:15:57;;;;;;;0.00;0.00;;;;;;;9.99;100.00;99604.94;5099101;28;20032;-40
2023/10/30 00:18:22;;;;;;;0.00;0.00;;;;;;;9.94;100.00;99607.44;5094035;28;20102;-40
2023/10/30 00:20:47;;;;;;;0.00;0.00;;;;;;;9.95;100.00;99617.13;5113937;28;20046;-39
2023/10/30 00:23:13;;;;;;;0.00;0.00;;;;;;;9.99;100.00;99626.47;5114895;28;20354;-40
2023/10/30 00:25:38;;;;;;;0.00;0.00;;;;;;;10.00;100.00;99628.91;5113588;28;20477;-40
2023/10/30 00:28:03;;;;;;;0.00;0.00;;;;;;;9.99;100.00;99645.28;5112903;28;20043;-41
2023/10/30 00:30:29;;;;;;;0.00;0.00;;;;;;;9.89;100.00;99646.50;5112542;28;20152;-40
2023/10/30 00:32:54;;;;;;;0.00;0.00;;;;;;;9.86;100.00;99654.97;5113010;28;20023;-39
2023/10/30 00:35:19;;;;;;;0.00;0.00;;;;;;;9.84;100.00;99657.03;5112249;28;20032;-40
2023/10/30 00:37:45;;;;;;;0.00;0.00;;;;;;;9.79;100.00;99654.13;5112080;28;20035;-40
2023/10/30 00:40:11;;;;;;;0.00;0.00;;;;;;;9.77;100.00;99660.75;5112052;28;20442;-39
2023/10/30 00:42:36;;;;;;;0.00;0.00;;;;;;;9.77;100.00;99661.59;5112162;28;20123;-40
2023/10/30 00:45:04;;;;;;;0.00;0.00;;;;;;;9.79;100.00;99674.81;5106083;28;20091;-40
2023/10/30 00:47:30;;;;;;;0.00;0.00;;;;;;;9.85;100.00;99674.84;5092919;28;20028;-40
2023/10/30 00:49:55;;;;;;;0.00;0.00;;;;;;;9.83;100.00;99671.53;5112791;28;20406;-40
2023/10/30 00:52:20;;;;;;;0.00;0.00;;;;;;;9.81;100.00;99678.94;5114157;28;20062;-39
2023/10/30 00:54:46;;;;;;;0.00;0.00;;;;;;;9.83;100.00;99690.34;5111722;28;20478;-40
2023/10/30 00:57:12;;;;;;;0.00;0.00;;;;;;;9.82;100.00;99679.78;5095488;28;20058;-40
2023/10/30 00:59:37;;;;;;;0.00;0.00;;;;;;;9.81;100.00;99667.38;5110991;28;20043;-40
2023/10/30 01:02:03;;;;;;;0.00;0.00;;;;;;;9.78;100.00;99673.16;5112160;28;20044;-40
2023/10/30 01:04:28;;;;;;;0.00;0.00;;;;;;;9.72;100.00;99680.19;5111789;28;20027;-40
2023/10/30 01:06:54;;;;;;;0.00;0.00;;;;;;;9.68;100.00;99677.06;5110830;28;20119;-41
2023/10/30 01:09:19;;;;;;;0.00;0.00;;;;;;;9.65;100.00;99680.19;5111369;28;20296;-40
2023/10/30 01:11:44;;;;;;;0.00;0.00;;;;;;;9.60;100.00;99682.66;5111213;28;20020;-41
2023/10/30 01:14:10;;;;;;;0.00;0.00;;;;;;;9.56;100.00;99680.59;5110863;28;20030;-40
2023/10/30 01:16:35;;;;;;;0.00;0.00;;;;;;;9.53;100.00;99681.81;5111249;28;20110;-40
2023/10/30 01:19:01;;;;;;;0.00;0.00;;;;;;;9.49;100.00;99682.44;5110906;28;20070;-40
2023/10/30 01:21:26;;;;;;;0.00;0.00;;;;;;;9.45;100.00;99674.78;5111638;28;20073;-40
2023/10/30 01:23:51;;;;;;;0.00;0.00;;;;;;;9.45;100.00;99677.47;5111797;28;20031;-41
2023/10/30 01:26:17;;;;;;;0.00;0.00;;;;;;;9.45;100.00;99685.53;5110585;28;20388;-41
2023/10/30 01:28:42;;;;;;;0.00;0.00;;;;;;;9.43;100.00;99676.00;5111302;28;20023;-42
2023/10/30 01:31:07;;;;;;;0.00;0.00;;;;;;;9.41;100.00;99681.56;5111471;28;20469;-41
2023/10/30 01:33:33;;;;;;;0.00;0.00;;;;;;;9.40;100.00;99676.41;5110946;28;20385;-41
2023/10/30 01:35:58;;;;;;;0.00;0.00;;;;;;;9.38;100.00;99679.31;5111531;28;20112;-40
2023/10/30 01:38:24;;;;;;;0.00;0.00;;;;;;;9.37;100.00;99677.66;5093935;28;20032;-40
2023/10/30 01:40:50;;;;;;;0.00;0.00;;;;;;;9.37;100.00;99683.03;5093176;28;20496;-40
2023/10/30 01:43:16;;;;;;;0.00;0.00;;;;;;;9.37;100.00;99687.53;5111383;28;20034;-40
2023/10/30 01:45:41;;;;;;;0.00;0.00;;;;;;;9.38;100.00;99695.41;5112019;28;20024;-39
2023/10/30 01:48:06;;;;;;;0.00;0.00;;;;;;;9.36;100.00;99694.78;5110966;28;20098;-40
2023/10/30 01:50:32;;;;;;;0.00;0.00;;;;;;;9.35;100.00;99692.31;5111188;28;20036;-41
2023/10/30 01:52:58;;;;;;;0.00;0.00;;;;;;;9.35;100.00;99701.19;5111037;28;20054;-41
2023/10/30 01:55:24;;;;;;;0.00;0.00;;;;;;;9.32;100.00;99706.97;5110723;28;20027;-41
2023/10/30 01:57:50;;;;;;;0.00;0.00;;;;;;;9.32;100.00;99714.19;5111021;28;20020;-40
2023/10/30 02:00:15;;;;;;;0.00;0.00;;;;;;;9.32;100.00;99712.34;5096609;28;20039;-41
2023/10/30 02:02:41;;;;;;;0.00;0.00;;;;;;;9.35;100.00;99716.47;5097535;28;20492;-43
2023/10/30 02:05:08;;;;;;;0.00;0.00;;;;;;;9.35;100.00;99716.47;5116516;28;20028;-41
2023/10/30 02:07:35;;;;;;;0.00;0.00;;;;;;;9.34;100.00;99715.63;5115919;28;20063;-40
2023/10/30 02:10:01;;;;;;;0.00;0.00;;;;;;;9.33;100.00;99708.63;5115951;28;20027;-41
2023/10/30 02:12:26;;;;;;;0.00;0.00;;;;;;;9.33;100.00;99713.97;5115799;28;20028;-38
2023/10/30 02:14:52;;;;;;;0.00;0.00;;;;;;;9.32;100.00;99712.34;5115084;28;20292;-40
2023/10/30 02:17:17;;;;;;;0.00;0.00;;;;;;;9.33;100.00;99722.03;5117365;28;20039;-40
2023/10/30 02:19:42;;;;;;;0.00;0.00;;;;;;;9.36;100.00;99731.56;5117105;28;20031;-41
2023/10/30 02:22:08;;;;;;;0.00;0.00;;;;;;;9.37;100.00;99720.63;5119519;28;20035;-40
2023/10/30 02:24:33;;;;;;;0.00;0.00;;;;;;;9.41;100.00;99715.66;5120431;28;20335;-40
2023/10/30 02:26:58;;;;;;;0.00;0.00;;;;;;;9.43;100.00;99721.66;5117814;28;20027;-42
2023/10/30 02:29:24;;;;;;;0.00;0.00;;;;;;;9.43;100.00;99722.50;5118550;28;20173;-39
2023/10/30 02:31:50;;;;;;;0.00;0.00;;;;;;;9.43;100.00;99708.25;5115540;28;20114;-41
2023/10/30 02:34:15;;;;;;;0.00;0.00;;;;;;;9.40;100.00;99719.38;5116023;28;20024;-41
2023/10/30 02:36:41;;;;;;;0.00;0.00;;;;;;;9.38;100.00;99734.88;5097329;28;20031;-40
2023/10/30 02:39:07;;;;;;;0.00;0.00;;;;;;;9.35;100.00;99722.69;5113301;28;20115;-41
2023/10/30 02:41:32;;;;;;;0.00;0.00;;;;;;;9.34;100.00;99737.09;5114583;28;20080;-40
2023/10/30 02:43:58;;;;;;;0.00;0.00;;;;;;;9.36;100.00;99735.06;5113998;28;20395;-42
2023/10/30 02:46:24;;;;;;;0.00;0.00;;;;;;;9.35;100.00;99733.41;5114200;28;20019;-40
2023/10/30 02:48:52;;;;;;;0.00;0.00;;;;;;;9.36;100.00;99736.94;5095680;28;20752;-40
2023/10/30 02:51:17;;;;;;;;;;;;;;;9.35;100.00;99752.22;5115459;28;20023;-39
2023/10/30 02:53:43;;;;;;;0.00;0.00;;;;;;;9.36;100.00;99743.13;5115179;28;20262;-42
2023/10/30 02:56:09;;;;;;;0.00;0.00;;;;;;;9.35;100.00;99752.22;5099362;28;20036;-41
2023/10/30 02:58:34;;;;;;;0.00;0.00;;;;;;;9.34;100.00;99741.66;5118495;28;20051;-39
2023/10/30 03:01:00;;;;;;;0.00;0.00;;;;;;;9.34;100.00;99747.84;5119562;28;20015;-41
2023/10/30 03:03:26;;;;;;;0.00;0.00;;;;;;;9.36;100.00;99745.81;5117822;28;20054;-40
2023/10/30 03:05:51;;;;;;;0.00;0.00;;;;;;;9.38;100.00;99754.50;5115097;28;20027;-40
2023/10/30 03:08:16;;;;;;;0.00;0.00;;;;;;;9.37;100.00;99746.63;5113897;28;20034;-42
2023/10/30 03:10:42;;;;;;;0.00;0.00;;;;;;;9.37;100.00;99754.69;5113552;28;20483;-40
2023/10/30 03:13:07;;;;;;;0.00;0.00;;;;;;;9.36;100.00;99748.50;5114113;28;20454;-40
2023/10/30 03:15:32;;;;;;;0.00;0.00;;;;;;;9.37;100.00;99752.00;5113572;28;20031;-39
2023/10/30 03:17:58;;;;;;;0.00;0.00;;;;;;;9.36;100.00;99744.97;5112769;28;20444;-40
2023/10/30 03:20:23;;;;;;;0.00;0.00;;;;;;;9.35;100.00;99754.91;5113314;28;20046;-40
2023/10/30 03:22:49;;;;;;;0.00;0.00;;;;;;;9.36;100.00;99751.16;5094872;28;20417;-41
2023/10/30 03:25:15;;;;;;;0.00;0.00;;;;;;;9.37;100.00;99736.72;5113484;28;20027;-40
2023/10/30 03:27:40;;;;;;;0.00;0.00;;;;;;;9.40;100.00;99747.06;5113337;28;20079;-39
2023/10/30 03:30:07;;;;;;;0.00;0.00;;;;;;;9.43;100.00;99757.41;5112905;28;20415;-40
2023/10/30 03:32:32;;;;;;;0.00;0.00;;;;;;;9.47;100.00;99751.63;5112251;28;20028;-40
2023/10/30 03:34:58;;;;;;;0.00;0.00;;;;;;;9.48;100.00;99747.91;5112752;28;20031;-40
2023/10/30 03:37:24;;;;;;;0.00;0.00;;;;;;;9.52;100.00;99752.66;5111782;28;20043;-39
2023/10/30 03:39:49;;;;;;;0.00;0.00;;;;;;;9.52;100.00;99741.94;5112835;28;20057;-42
2023/10/30 03:42:14;;;;;;;0.00;0.00;;;;;;;9.52;100.00;99743.78;5112772;28;20035;-40
2023/10/30 03:44:40;;;;;;;0.00;0.00;;;;;;;9.50;100.00;99748.53;5112107;28;20111;-40
2023/10/30 03:47:05;;;;;;;0.00;0.00;;;;;;;9.48;100.00;99746.06;5112387;28;20081;-40
2023/10/30 03:49:31;;;;;;;0.00;0.00;;;;;;;9.45;100.00;99754.50;5103302;28;20377;-40
2023/10/30 03:51:56;;;;;;;0.00;0.00;;;;;;;9.43;100.00;99752.03;5093765;28;20150;-41
2023/10/30 03:54:22;;;;;;;0.00;0.00;;;;;;;9.40;100.00;99755.13;5112306;28;20115;-41
2023/10/30 03:56:47;;;;;;;0.00;0.00;;;;;;;9.41;100.00;99756.78;5114133;27;20381;-41
2023/10/30 03:59:15;;;;;;;0.00;0.00;;;;;;;9.42;100.00;99763.78;5115239;28;20474;-41
2023/10/30 04:01:40;;;;;;;0.00;0.00;;;;;;;9.44;100.00;99753.69;5118798;28;20030;-42
2023/10/30 04:04:06;;;;;;;0.00;0.00;;;;;;;9.45;100.00;99749.13;5119249;28;20484;-41
2023/10/30 04:06:32;;;;;;;0.00;0.00;;;;;;;9.50;100.00;99751.22;5116762;28;20412;-40
2023/10/30 04:08:57;;;;;;;0.00;0.00;;;;;;;9.49;100.00;99745.03;5111657;28;20027;-40
2023/10/30 04:11:22;;;;;;;0.00;0.00;;;;;;;9.50;100.00;99751.22;5112207;28;20023;-40
2023/10/30 04:13:48;;;;;;;0.00;0.00;;;;;;;9.44;100.00;99745.63;5112230;28;20521;-39
2023/10/30 04:16:18;;;;;;;0.00;0.00;;;;;;;9.42;100.00;99752.22;5113288;28;20446;-40
2023/10/30 04:18:43;;;;;;;0.00;0.00;;;;;;;9.41;100.00;99743.34;5115120;28;20401;-40
2023/10/30 04:21:08;;;;;;;0.00;0.00;;;;;;;9.37;100.00;99744.78;5113332;28;20020;-41
2023/10/30 04:23:34;;;;;;;0.00;0.00;;;;;;;9.39;100.00;99758.00;5112493;28;20095;-40
2023/10/30 04:25:59;;;;;;;0.00;0.00;;;;;;;9.39;100.00;99758.00;5111843;28;20020;-41
2023/10/30 04:28:24;;;;;;;0.00;0.00;;;;;;;9.37;100.00;99757.38;5111970;28;20024;-40
2023/10/30 04:30:50;;;;;;;0.00;0.00;;;;;;;9.36;100.00;99753.03;5112111;28;20027;-39
2023/10/30 04:33:15;;;;;;;0.00;0.00;;;;;;;9.37;100.00;99747.47;5111609;28;20126;-41
2023/10/30 04:35:41;;;;;;;0.00;0.00;;;;;;;9.41;100.00;99754.09;5111639;28;20023;-40
2023/10/30 04:38:06;;;;;;;0.00;0.00;;;;;;;9.42;100.00;99750.34;5111360;28;20417;-39
2023/10/30 04:40:33;;;;;;;0.00;0.00;;;;;;;9.42;100.00;99749.53;5111969;28;20118;-40
2023/10/30 04:42:58;;;;;;;0.00;0.00;;;;;;;9.41;100.00;99748.72;5112906;28;20051;-40
2023/10/30 04:45:23;;;;;;;0.00;0.00;;;;;;;9.47;100.00;99757.81;5112123;28;20082;-39
2023/10/30 04:47:49;;;;;;;0.00;0.00;;;;;;;9.54;100.00;99756.00;5111799;28;20024;-41
2023/10/30 04:50:14;;;;;;;0.00;0.00;;;;;;;9.57;100.00;99755.59;5111159;28;20027;-41
2023/10/30 04:52:40;;;;;;;0.00;0.00;;;;;;;9.60;100.00;99762.41;5110014;28;20027;-41
2023/10/30 04:55:05;;;;;;;0.00;0.00;;;;;;;9.61;100.00;99770.28;5109264;28;20572;-39
2023/10/30 04:57:31;;;;;;;0.00;0.00;;;;;;;9.65;100.00;99773.38;5109059;28;20467;-41
2023/10/30 04:59:56;;;;;;;0.00;0.00;;;;;;;9.64;100.00;99772.56;5108042;28;20024;-39
2023/10/30 05:02:21;;;;;;;0.00;0.00;;;;;;;9.65;100.00;99770.69;5093854;28;20055;-41
2023/10/30 05:04:47;;;;;;;0.00;0.00;;;;;;;9.62;100.00;99760.34;5114711;28;20100;-40
2023/10/30 05:07:12;;;;;;;0.00;0.00;;;;;;;9.62;100.00;99760.34;5113228;28;20051;-39
2023/10/30 05:09:38;;;;;;;0.00;0.00;;;;;;;9.66;100.00;99756.22;5110069;28;20112;-41
2023/10/30 05:12:03;;;;;;;0.00;0.00;;;;;;;9.67;100.00;99765.94;5107541;28;20024;-42
2023/10/30 05:14:29;;;;;;;0.00;0.00;;;;;;;9.65;100.00;99744.66;5109585;28;20034;-42
2023/10/30 05:16:54;;;;;;;0.00;0.00;;;;;;;9.63;100.00;99751.25;5109015;28;20129;-41
2023/10/30 05:19:20;;;;;;;0.00;0.00;;;;;;;9.61;100.00;99756.84;5110325;28;20059;-41
2023/10/30 05:21:45;;;;;;;0.00;0.00;;;;;;;9.65;100.00;99754.56;5095366;28;20035;-40
2023/10/30 05:24:11;;;;;;;0.00;0.00;;;;;;;9.65;100.00;99743.81;5103625;28;20055;-41
2023/10/30 05:26:37;;;;;;;0.00;0.00;;;;;;;9.67;100.00;99764.09;5102109;28;20016;-41
2023/10/30 05:29:02;;;;;;;0.00;0.00;;;;;;;9.70;100.00;99754.78;5091974;28;20749;-40
2023/10/30 05:31:27;;;;;;;0.00;0.00;;;;;;;9.73;100.00;99745.50;5108430;28;20027;-41
2023/10/30 05:33:53;;;;;;;0.00;0.00;;;;;;;9.73;100.00;99756.25;5115436;27;20031;-41
2023/10/30 05:36:18;;;;;;;0.00;0.00;;;;;;;9.73;100.00;99750.88;5121996;28;20046;-40
2023/10/30 05:38:43;;;;;;;0.00;0.00;;;;;;;9.70;100.00;99754.78;5125966;28;20439;-41
2023/10/30 05:41:09;;;;;;;0.00;0.00;;;;;;;9.67;100.00;99749.84;5122141;28;20100;-41
2023/10/30 05:43:34;;;;;;;0.00;0.00;;;;;;;9.65;100.00;99749.19;5110353;27;20080;-41
2023/10/30 05:46:00;;;;;;;0.00;0.00;;;;;;;9.65;100.00;99768.00;5119480;27;20024;-41
2023/10/30 05:48:25;;;;;;;0.00;0.00;;;;;;;9.64;100.00;99769.03;5117981;28;20038;-40
2023/10/30 05:50:50;;;;;;;0.00;0.00;;;;;;;9.60;100.00;99757.03;5117341;28;20035;-40
2023/10/30 05:53:16;;;;;;;0.00;0.00;;;;;;;9.58;100.00;99749.16;5117212;28;20402;-41
2023/10/30 05:55:42;;;;;;;0.00;0.00;;;;;;;9.57;100.00;99747.53;5117862;28;20032;-41
2023/10/30 05:58:07;;;;;;;0.00;0.00;;;;;;;9.58;100.00;99753.72;5114908;28;20452;-41
2023/10/30 06:00:33;;;;;;;0.00;0.00;;;;;;;9.56;100.00;99751.25;5118022;28;20053;-40
2023/10/30 06:02:58;;;;;;;0.00;0.00;;;;;;;9.57;100.00;99773.56;5118010;28;20097;-41
2023/10/30 06:05:23;;;;;;;0.00;0.00;;;;;;;9.60;100.00;99768.59;5117908;28;20369;-40
2023/10/30 06:07:49;;;;;;;0.00;0.00;;;;;;;9.60;100.00;99768.59;5117676;28;20376;-40
2023/10/30 06:10:16;;;;;;;0.00;0.00;;;;;;;9.63;100.00;99780.81;5115995;28;20510;-40
2023/10/30 06:12:42;;;;;;;0.00;0.00;;;;;;;9.65;100.00;99792.19;5110298;28;20420;-39
2023/10/30 06:15:07;;;;;;;0.00;0.00;;;;;;;9.66;100.00;99785.78;5117976;28;20088;-41
2023/10/30 06:17:34;;;;;;;0.00;0.00;;;;;;;9.64;100.00;99791.38;5098498;28;20035;-41
2023/10/30 06:20:00;;;;;;;0.00;0.00;;;;;;;9.63;100.00;99795.06;5112215;28;20378;-41
2023/10/30 06:22:25;;;;;;;0.00;0.00;;;;;;;9.63;100.00;99789.69;5095470;28;20028;-40
2023/10/30 06:24:51;;;;;;;0.00;0.00;;;;;;;9.63;100.00;99784.31;5117197;27;20029;-42
2023/10/30 06:27:16;;;;;;;0.00;0.00;;;;;;;9.62;100.00;99800.66;5117279;27;20030;-41
2023/10/30 06:29:41;;;;;;;0.00;0.00;;;;;;;9.58;100.00;99772.53;5103743;28;20039;-40
2023/10/30 06:32:07;;;;;;;0.00;0.00;;;;;;;9.61;100.00;99782.84;5097581;28;20026;-41
2023/10/30 06:34:38;;;;;;;0.00;0.00;;;;;;;9.66;100.00;99788.47;5117245;27;20027;-40
2023/10/30 06:37:03;;;;;;;0.00;0.00;;;;;;;9.68;100.00;99789.09;5118041;28;20050;-41
2023/10/30 06:39:29;;;;;;;0.00;0.00;;;;;;;9.68;100.00;99797.97;5119848;28;20437;-40
2023/10/30 06:41:56;;;;;;;0.00;0.00;;;;;;;9.68;100.00;99802.53;5117011;28;20628;-41
2023/10/30 06:44:25;;;;;;;0.00;0.00;;;;;;;9.67;100.00;99800.88;5116860;28;20382;-40
2023/10/30 06:46:50;;;;;;;0.00;0.00;;;;;;;9.65;100.00;99794.88;5109085;28;20505;-42
2023/10/30 06:49:18;;;;;;;0.00;0.00;;;;;;;9.67;100.00;99800.88;5094332;28;20059;-40
2023/10/30 06:51:44;;;;;;;0.00;0.00;;;;;;;9.67;100.00;99795.50;5113940;28;20016;-41
2023/10/30 06:54:10;;;;;;;0.00;0.00;;;;;;;9.70;100.00;99784.34;5112285;28;20028;-39
2023/10/30 06:56:36;;;;;;;0.00;0.00;;;;;;;9.73;100.00;99794.69;5113155;28;20042;-40
2023/10/30 06:59:02;;;;;;;0.00;0.00;;;;;;;9.74;100.00;99801.75;5110530;28;20035;-41
2023/10/30 07:01:29;;;;;;;0.00;0.00;;;;;;;9.78;100.00;99802.97;5110508;27;20035;-41
2023/10/30 07:03:55;;;;;;;0.00;0.00;;;;;;;9.82;100.00;99806.94;5092080;28;20158;-39
2023/10/30 07:06:21;;;;;;;0.00;0.00;;;;;;;9.80;100.00;99814.34;5101695;28;20035;-40
2023/10/30 07:08:46;;;;;;;0.00;0.00;;;;;;;9.85;100.00;99825.31;5118738;28;20047;-40
2023/10/30 07:11:12;;;;;;;0.00;0.00;;;;;;;9.87;100.00;99827.78;5114918;28;20015;-41
2023/10/30 07:13:37;;;;;;;0.00;0.00;;;;;;;9.96;100.00;99839.22;5116786;28;20027;-42
2023/10/30 07:16:03;;;;;;;0.00;0.00;;;;;;;10.07;100.00;99844.00;5102579;28;20067;-38
2023/10/30 07:18:29;;;;;;;0.00;0.00;;;;;;;10.14;100.00;99835.91;5109141;27;20024;-39
2023/10/30 07:20:54;;;;;;;0.00;0.00;;;;;;;10.16;100.00;99832.00;5113579;28;20115;-41
2023/10/30 07:23:19;;;;;;;0.00;0.00;;;;;;;10.21;100.00;99845.66;5112666;28;20028;-41
2023/10/30 07:25:45;;;;;;;0.00;0.00;;;;;;;10.32;100.00;99842.44;5114392;28;20103;-43
2023/10/30 07:28:11;;;;;;;0.00;0.00;;;;;;;10.36;100.00;99834.75;5117139;28;20114;-39
2023/10/30 07:30:37;;;;;;;0.00;0.00;;;;;;;10.43;100.00;99837.47;5117276;28;20027;-41
2023/10/30 07:33:02;;;;;;;0.00;0.00;;;;;;;10.44;100.00;99841.81;5110277;27;20406;-40
2023/10/30 07:35:27;;;;;;;0.00;0.00;;;;;;;10.54;100.00;99834.16;5108064;28;20051;-41
2023/10/30 07:37:53;;;;;;;0.00;0.00;;;;;;;10.61;100.00;99844.91;5112824;27;20041;-42
2023/10/30 07:40:19;;;;;;;0.00;0.00;;;;;;;10.77;100.00;99852.59;5113289;28;20038;-39
2023/10/30 07:42:44;;;;;;;0.00;0.00;;;;;;;10.66;100.00;99848.63;5119379;27;20027;-39
2023/10/30 07:45:11;;;;;;;0.00;0.00;;;;;;;10.68;100.00;99854.66;5119811;27;20028;-40
2023/10/30 07:47:37;;;;;;;0.00;0.00;;;;;;;10.64;100.00;99864.19;5110925;28;20030;-41
2023/10/30 07:50:03;;;;;;;0.00;0.00;;;;;;;10.62;100.00;99863.56;5110094;28;20032;-40
2023/10/30 07:52:28;;;;;;;0.00;0.00;;;;;;;10.60;100.00;99865.63;5112408;27;20050;-40
2023/10/30 07:54:54;;;;;;;0.00;0.00;;;;;;;10.55;100.00;99870.78;5111232;28;20080;-40
2023/10/30 07:57:19;;;;;;;0.00;0.00;;;;;;;10.49;100.00;99871.63;5113145;27;20035;-40
2023/10/30 07:59:45;;;;;;;0.00;0.00;;;;;;;10.51;100.00;99867.69;5124276;27;20145;-41
2023/10/30 08:02:10;;;;;;;0.00;0.00;;;;;;;10.55;100.00;99862.72;5107365;28;20026;-42
2023/10/30 08:04:35;;;;;;;0.00;0.00;;;;;;;10.59;100.00;99861.28;5104822;28;20490;-41
2023/10/30 08:07:01;;;;;;;0.00;0.00;;;;;;;10.61;100.00;99853.84;5110683;27;20083;-40
2023/10/30 08:09:26;;;;;;;0.00;0.00;;;;;;;10.64;100.00;99844.53;5110856;27;20020;-40
2023/10/30 08:11:51;;;;;;;0.00;0.00;;;;;;;10.77;100.00;99847.22;5109964;28;20051;-40
2023/10/30 08:14:17;;;;;;;0.00;0.00;;;;;;;10.83;100.00;99840.16;5111453;27;20020;-39
2023/10/30 08:16:42;;;;;;;0.00;0.00;;;;;;;10.96;100.00;99835.59;5106338;28;20066;-41
2023/10/30 08:19:07;;;;;;;0.00;0.00;;;;;;;11.05;100.00;99829.97;5107011;28;20020;-40
2023/10/30 08:21:32;;;;;;;0.00;0.00;;;;;;;11.17;100.00;99829.13;5107271;28;20038;-40
2023/10/30 08:23:58;;;;;;;0.00;0.00;;;;;;;11.21;100.00;99819.56;5107468;28;20024;-40
2023/10/30 08:26:25;;;;;;;0.00;0.00;;;;;;;11.26;100.00;99826.22;5112369;28;20035;-39
2023/10/30 08:28:51;;;;;;;0.00;0.00;;;;;;;11.36;100.00;99832.00;5112651;28;20031;-40
2023/10/30 08:31:16;;;;;;;0.00;0.00;;;;;;;11.34;100.00;99832.19;5107877;28;20521;-39
2023/10/30 08:33:41;;;;;;;0.00;0.00;;;;;;;11.35;100.00;99841.13;5112729;27;20394;-41
2023/10/30 08:36:07;;;;;;;0.00;0.00;;;;;;;11.33;100.00;99835.94;5110373;28;20469;-40
2023/10/30 08:38:32;;;;;;;0.00;0.00;;;;;;;11.33;100.00;99843.19;5112529;27;20147;-39
2023/10/30 08:40:58;;;;;;;0.00;0.00;;;;;;;11.39;100.00;99853.09;5109384;28;20024;-40
2023/10/30 08:43:23;;;;;;;0.00;0.00;;;;;;;11.36;100.00;99854.34;5107471;27;20024;-40
2023/10/30 08:45:48;;;;;;;0.00;0.00;;;;;;;11.35;100.00;99857.28;5107101;28;20016;-40
2023/10/30 08:48:14;;;;;;;0.00;0.00;;;;;;;11.35;100.00;99860.78;5109954;27;20023;-40
2023/10/30 08:50:40;;;;;;;0.00;0.00;;;;;;;11.36;100.00;99862.44;5106054;28;20031;-42
2023/10/30 08:53:06;;;;;;;0.00;0.00;;;;;;;11.38;100.00;99868.44;5109111;27;20484;-41
2023/10/30 08:55:31;;;;;;;0.00;0.00;;;;;;;11.45;100.00;99870.28;5114935;28;20059;-40
2023/10/30 08:57:57;;;;;;;0.65;0.00;;;;;;;11.49;100.00;99869.66;5110238;28;20183;-39
2023/10/30 09:00:22;;;;;;;0.00;0.00;;;;;;;11.52;100.00;99885.41;5110947;28;20406;-39
2023/10/30 09:02:47;;;;;;;0.00;0.00;;;;;;;11.59;100.00;99890.78;5109222;28;20426;-41
2023/10/30 09:05:13;;;;;;;0.00;0.00;;;;;;;11.59;100.00;99875.44;5106776;28;20116;-41
2023/10/30 09:07:39;;;;;;;0.00;0.00;;;;;;;11.65;100.00;99882.66;5108879;28;20023;-40
2023/10/30 09:10:05;;;;;;;0.00;0.00;;;;;;;11.62;100.00;99880.41;5104352;28;20047;-40
2023/10/30 09:12:30;;;;;;;0.00;0.00;;;;;;;11.63;100.00;99882.03;5112273;27;20031;-40
2023/10/30 09:14:55;;;;;;;0.00;0.00;;;;;;;11.74;100.00;99882.44;5110847;28;20377;-40
2023/10/30 09:17:21;;;;;;;0.00;0.00;;;;;;;11.62;100.00;99877.72;5112937;28;20184;-41
2023/10/30 09:19:46;;;;;;;0.00;0.00;;;;;;;11.70;100.00;99865.88;5106405;28;20116;-38
2023/10/30 09:22:12;;;;;;;0.00;0.00;;;;;;;11.72;100.00;99862.97;5111363;28;20035;-42
2023/10/30 09:24:37;;;;;;;0.00;0.00;;;;;;;11.77;100.00;99872.06;5105994;28;20041;-40
2023/10/30 09:27:03;;;;;;;0.00;0.00;;;;;;;11.81;100.00;99875.97;5110846;28;20051;-40
2023/10/30 09:29:28;;;;;;;0.00;0.00;;;;;;;11.91;100.00;99877.44;5107853;28;20043;-40
2023/10/30 09:31:55;;;;;;;0.00;0.00;;;;;;;11.96;100.00;99872.22;5102629;28;20031;-40
2023/10/30 09:34:21;;;;;;;0.00;0.00;;;;;;;12.04;100.00;99864.69;5105562;28;20026;-40
2023/10/30 09:36:46;;;;;;;0.00;0.00;;;;;;;12.05;100.00;99877.13;5102563;28;20027;-40
2023/10/30 09:39:12;;;;;;;0.00;0.00;;;;;;;12.05;100.00;99873.63;5102712;28;20444;-39
2023/10/30 09:41:43;;;;;;;0.00;0.00;;;;;;;11.90;100.00;99864.97;5109658;28;20539;-39
2023/10/30 09:44:10;;;;;;;0.00;0.00;;;;;;;11.80;100.00;99877.03;5107478;28;20383;-39
2023/10/30 09:46:37;;;;;;;0.00;0.00;;;;;;;11.84;100.00;99877.41;5103942;28;20020;-39
2023/10/30 09:49:04;;;;;;;0.00;0.00;;;;;;;11.84;100.00;99856.66;5112136;28;20114;-38
2023/10/30 09:51:30;;;;;;;0.00;0.00;;;;;;;11.92;100.00;99855.63;5086338;28;20031;-40
2023/10/30 09:53:57;;;;;;;0.00;0.00;;;;;;;11.96;100.00;99851.47;5088318;28;20481;-41
2023/10/30 09:56:25;;;;;;;0.00;0.00;;;;;;;12.10;100.00;99849.53;5105223;28;20504;-42
2023/10/30 09:58:51;;;;;;;0.00;0.00;;;;;;;12.02;100.00;99850.59;5108128;28;20101;-41
2023/10/30 10:01:18;;;;;;;0.00;0.00;;;;;;;12.13;100.00;99845.56;5086337;28;20482;-41
2023/10/30 10:03:43;;;;;;;0.00;0.00;;;;;;;12.15;100.00;99849.72;5107618;28;20687;-41
2023/10/30 10:06:08;;;;;;;0.00;0.00;;;;;;;12.29;100.00;99842.34;5111326;28;20135;-40
2023/10/30 10:08:34;;;;;;;0.00;0.00;;;;;;;12.41;100.00;99840.63;5108481;28;20470;-41
2023/10/30 10:11:01;;;;;;;0.00;0.00;;;;;;;12.40;100.00;99840.81;5110947;28;20051;-40
2023/10/30 10:13:32;;;;;;;0.00;0.00;;;;;;;12.56;100.00;99843.00;5108390;28;20024;-40
2023/10/30 10:15:58;;;;;;;0.00;0.00;;;;;;;12.44;100.00;99840.19;5111749;28;20318;-40
2023/10/30 10:18:24;;;;;;;0.00;0.00;;;;;;;12.64;100.00;99850.00;5112548;28;20027;-39
2023/10/30 10:20:57;;;;;;;0.00;0.00;;;;;;;12.61;100.00;99853.13;5113653;28;20122;-41
2023/10/30 10:23:23;;;;;;;0.00;0.00;;;;;;;12.68;100.00;99860.13;5117170;28;20027;-40
2023/10/30 10:25:54;;;;;;;0.00;0.00;;;;;;;12.45;100.00;99863.44;5118834;28;20027;-39
2023/10/30 10:28:21;;;;;;;0.00;0.00;;;;;;;12.35;100.00;99863.09;5119313;28;20031;-41
2023/10/30 10:30:47;;;;;;;0.00;0.00;;;;;;;12.42;100.00;99863.84;5120551;28;20050;-39
2023/10/30 10:33:12;;;;;;;0.00;0.00;;;;;;;12.47;100.00;99834.34;5125169;27;20461;-40
2023/10/30 10:35:41;;;;;;;0.00;0.00;;;;;;;12.51;100.00;99835.56;5125522;27;20050;-42
2023/10/30 10:38:11;;;;;;;0.00;0.00;;;;;;;12.47;100.00;99823.53;5121768;27;20081;-40
2023/10/30 10:40:37;;;;;;;0.00;0.00;;;;;;;12.47;100.00;99828.94;5121542;27;20115;-40
2023/10/30 10:43:04;;;;;;;0.00;0.00;;;;;;;12.45;100.00;99830.19;5121063;28;20055;-43
2023/10/30 10:45:30;;;;;;;0.00;0.00;;;;;;;12.49;100.00;99837.66;5117992;28;20175;-40
2023/10/30 10:47:56;;;;;;;0.00;0.00;;;;;;;12.51;100.00;99851.75;5116152;28;20682;-41
2023/10/30 10:50:22;;;;;;;0.00;0.00;;;;;;;12.44;100.00;99856.38;5115706;28;20019;-40
2023/10/30 10:52:48;;;;;;;0.00;0.00;;;;;;;12.51;100.00;99862.56;5114794;28;20031;-40
2023/10/30 10:55:18;;;;;;;0.00;0.00;;;;;;;12.42;100.00;99853.06;5113309;28;20474;-41
2023/10/30 10:57:51;;;;;;;0.00;0.00;;;;;;;12.40;100.00;99833.59;5115006;28;20088;-39
2023/10/30 11:00:17;;;;;;;0.00;0.00;;;;;;;12.30;100.00;99838.63;5114653;27;20331;-41
2023/10/30 11:02:48;;;;;;;0.00;0.00;;;;;;;12.27;100.00;99841.75;5096279;28;20108;-39
2023/10/30 11:05:13;;;;;;;0.00;0.00;;;;;;;12.36;100.00;99835.03;5114403;27;20027;-40
2023/10/30 11:07:49;;;;;;;0.00;0.00;;;;;;;12.39;100.00;99836.47;5094606;28;20035;-40
2023/10/30 11:10:49;;;;;;;0.00;0.00;;;;;;;12.35;100.00;99846.91;5095379;28;20028;-42
2023/10/30 11:13:22;;;;;;;0.00;0.00;;;;;;;12.36;100.00;99832.34;5085507;27;20043;-39
2023/10/30 11:15:57;;;;;;;0.00;0.00;;;;;;;12.43;100.00;99830.44;5097280;28;20076;-39
2023/10/30 11:18:24;;;;;;;0.00;0.00;;;;;;;12.46;100.00;99830.00;5097669;28;20080;-40
2023/10/30 11:21:09;;;;;;;0.00;0.00;;;;;;;12.52;100.00;99848.00;5110827;27;20106;-40
2023/10/30 11:23:56;;;;;;;0.00;0.00;;;;;;;12.63;100.00;99837.53;5116207;28;20110;-40
2023/10/30 11:26:35;;;;;;;0.00;0.00;;;;;;;12.58;100.00;99832.78;5113587;28;20028;-40